createdAt,value
2022-10-07T00:03:44.002Z,22.00
2022-10-07T00:07:46.640Z,21.58
2022-10-07T00:11:48.541Z,23.70
2022-10-07T00:15:50.608Z,22.60
2022-10-07T00:19:52.198Z,23.02
2022-10-07T00:23:54.099Z,22.20
2022-10-07T00:27:55.905Z,22.88
2022-10-07T00:31:57.828Z,26.08
2022-10-07T00:35:59.604Z,23.27
2022-10-07T00:40:01.645Z,21.20
2022-10-07T00:44:31.282Z,22.65
2022-10-07T00:48:36.113Z,23.90
2022-10-07T00:52:42.433Z,24.27
2022-10-07T00:56:47.063Z,24.10
2022-10-07T01:00:48.734Z,22.08
2022-10-07T01:04:52.795Z,21.08
2022-10-07T01:08:54.762Z,25.73
2022-10-07T01:13:18.740Z,26.48
2022-10-07T01:17:35.897Z,29.67
2022-10-07T01:21:52.683Z,26.50
2022-10-07T01:26:04.270Z,33.47
2022-10-07T01:30:08.159Z,31.65
2022-10-07T01:34:11.739Z,36.22
2022-10-07T01:38:17.878Z,32.60
2022-10-07T01:42:21.171Z,33.40
2022-10-07T01:46:26.781Z,29.23
2022-10-07T01:50:33.332Z,29.05
2022-10-07T01:55:09.190Z,28.75
2022-10-07T01:59:31.066Z,29.50
2022-10-07T02:03:54.692Z,25.08
2022-10-07T02:08:30.181Z,26.85
2022-10-07T02:12:40.190Z,25.00
2022-10-07T02:16:47.837Z,26.42
2022-10-07T02:20:52.547Z,28.08
2022-10-07T02:24:59.154Z,25.25
2022-10-07T02:29:06.819Z,29.88
2022-10-07T02:33:10.376Z,24.92
2022-10-07T02:37:19.725Z,26.55
2022-10-07T02:41:33.736Z,27.00
2022-10-07T02:46:06.043Z,24.77
2022-10-07T02:50:12.838Z,23.55
2022-10-07T02:54:24.286Z,24.83
2022-10-07T02:58:26.577Z,28.58
2022-10-07T03:02:50.217Z,27.92
2022-10-07T03:06:52.346Z,26.23
2022-10-07T03:10:54.273Z,25.70
2022-10-07T03:14:56.322Z,28.20
2022-10-07T03:19:01.472Z,26.08
2022-10-07T03:23:11.660Z,32.58
2022-10-07T03:27:13.989Z,32.08
2022-10-07T03:31:16.443Z,33.28
2022-10-07T03:35:22.663Z,36.05
2022-10-07T03:39:24.590Z,37.45
2022-10-07T03:43:28.896Z,44.40
2022-10-07T03:47:30.799Z,50.28
2022-10-07T03:51:33.081Z,47.17
2022-10-07T03:55:36.818Z,48.60
2022-10-07T03:59:39.348Z,49.58
2022-10-07T04:03:41.378Z,47.17
2022-10-07T04:07:48.185Z,51.30
2022-10-07T04:11:51.249Z,57.87
2022-10-07T04:15:54.701Z,56.00
2022-10-07T04:19:58.018Z,54.78
2022-10-07T04:24:00.563Z,57.55
2022-10-07T04:28:06.494Z,51.67
2022-10-07T04:32:09.807Z,56.95
2022-10-07T04:36:12.862Z,59.28
2022-10-07T04:40:31.094Z,49.65
2022-10-07T04:44:33.353Z,50.15
2022-10-07T04:48:44.088Z,51.97
2022-10-07T04:52:46.483Z,54.78
2022-10-07T04:56:49.975Z,56.30
2022-10-07T05:00:55.889Z,56.40
2022-10-07T05:04:59.890Z,53.65
2022-10-07T05:09:02.004Z,54.38
2022-10-07T05:13:12.395Z,57.72
2022-10-07T05:17:15.299Z,62.13
2022-10-07T05:21:17.401Z,62.03
2022-10-07T05:25:21.522Z,53.65
2022-10-07T05:29:24.209Z,58.15
2022-10-07T05:33:29.349Z,57.95
2022-10-07T05:37:32.405Z,66.63
2022-10-07T05:41:38.446Z,71.57
2022-10-07T05:45:47.637Z,72.38
2022-10-07T05:49:49.355Z,73.35
2022-10-07T05:53:56.047Z,72.25
2022-10-07T05:58:00.688Z,69.22
2022-10-07T06:02:02.774Z,70.68
2022-10-07T06:06:05.197Z,65.10
2022-10-07T06:10:26.333Z,65.97
2022-10-07T06:14:28.443Z,68.65
2022-10-07T06:18:30.615Z,60.83
2022-10-07T06:22:34.046Z,62.92
2022-10-07T06:26:36.036Z,61.17
2022-10-07T06:30:38.324Z,59.90
2022-10-07T06:34:40.280Z,58.38
2022-10-07T06:38:46.834Z,58.15
2022-10-07T06:42:49.393Z,53.35
2022-10-07T06:47:14.655Z,50.03
2022-10-07T06:51:20.501Z,50.95
2022-10-07T06:55:24.222Z,47.63
2022-10-07T06:59:26.341Z,49.20
2022-10-07T07:03:35.315Z,47.30
2022-10-07T07:07:38.240Z,44.97
2022-10-07T07:11:43.363Z,40.28
2022-10-07T07:15:58.979Z,38.67
2022-10-07T07:20:03.882Z,34.38
2022-10-07T07:24:07.738Z,37.15
2022-10-07T07:28:09.968Z,33.63
2022-10-07T07:32:37.244Z,32.25
2022-10-07T07:36:44.767Z,31.85
2022-10-07T07:40:47.276Z,29.63
2022-10-07T07:44:50.056Z,30.08
2022-10-07T07:48:54.836Z,26.85
2022-10-07T07:52:57.732Z,31.80
2022-10-07T07:57:00.337Z,25.30
2022-10-07T08:01:09.176Z,23.42
2022-10-07T08:05:11.098Z,19.90
2022-10-07T08:09:13.139Z,17.15
2022-10-07T08:13:18.332Z,15.00
2022-10-07T08:17:20.318Z,16.77
2022-10-07T08:21:25.121Z,15.55
2022-10-07T08:25:30.559Z,13.27
2022-10-07T08:29:35.412Z,14.13
2022-10-07T08:33:39.715Z,12.18
2022-10-07T08:37:41.512Z,12.80
2022-10-07T08:42:01.589Z,11.40
2022-10-07T08:46:04.851Z,11.80
2022-10-07T08:50:19.681Z,12.70
2022-10-07T08:54:27.589Z,10.40
2022-10-07T08:58:43.392Z,11.60
2022-10-07T09:03:09.868Z,10.77
2022-10-07T09:07:16.107Z,9.27
2022-10-07T09:11:25.948Z,8.48
2022-10-07T09:15:40.087Z,10.95
2022-10-07T09:19:48.768Z,9.52
2022-10-07T09:27:57.145Z,8.27
2022-10-07T09:31:59.397Z,7.70
2022-10-07T09:36:10.207Z,9.68
2022-10-07T09:40:36.825Z,7.68
2022-10-07T09:44:40.165Z,5.70
2022-10-07T09:48:52.746Z,5.43
2022-10-07T09:52:57.589Z,4.47
2022-10-07T09:57:01.917Z,3.50
2022-10-07T10:01:28.526Z,4.70
2022-10-07T10:05:32.906Z,5.05
2022-10-07T10:09:35.184Z,4.97
2022-10-07T10:13:40.902Z,4.72
2022-10-07T10:17:42.702Z,4.45
2022-10-07T10:21:51.503Z,6.00
2022-10-07T10:26:33.631Z,4.35
2022-10-07T10:30:47.328Z,4.10
2022-10-07T10:35:14.957Z,4.32
2022-10-07T10:39:44.912Z,3.05
2022-10-07T10:44:03.925Z,2.03
2022-10-07T10:52:29.620Z,3.00
2022-10-07T10:56:43.890Z,2.22
2022-10-07T11:00:48.678Z,2.13
2022-10-07T11:05:14.963Z,2.28
2022-10-07T11:09:30.828Z,2.47
2022-10-07T11:13:55.893Z,2.40
2022-10-07T11:18:02.178Z,1.88
2022-10-07T11:22:10.816Z,2.20
2022-10-07T11:26:23.008Z,1.80
2022-10-07T11:30:31.858Z,1.88
2022-10-07T11:34:54.715Z,2.65
2022-10-07T11:38:56.716Z,2.30
2022-10-07T11:43:07.596Z,2.45
2022-10-07T11:47:16.794Z,2.22
2022-10-07T11:51:27.406Z,1.50
2022-10-07T11:55:35.577Z,1.75
2022-10-07T11:59:43.377Z,2.13
2022-10-07T12:03:47.224Z,2.43
2022-10-07T12:08:22.135Z,2.53
2022-10-07T12:12:25.016Z,2.53
2022-10-07T12:16:32.398Z,1.90
2022-10-07T12:20:46.243Z,2.30
2022-10-07T12:25:29.277Z,2.67
2022-10-07T12:29:35.365Z,2.65
2022-10-07T12:33:46.280Z,2.30
2022-10-07T12:37:50.353Z,3.33
2022-10-07T12:41:52.288Z,2.35
2022-10-07T12:45:58.185Z,3.08
2022-10-07T12:50:11.302Z,2.42
2022-10-07T12:54:20.243Z,2.83
2022-10-07T12:58:56.989Z,2.15
2022-10-07T13:03:25.105Z,1.92
2022-10-07T13:07:39.048Z,2.10
2022-10-07T13:12:06.759Z,2.33
2022-10-07T13:16:15.635Z,2.33
2022-10-07T13:20:54.045Z,1.85
2022-10-07T13:24:58.047Z,2.10
2022-10-07T13:29:01.205Z,2.28
2022-10-07T13:33:23.877Z,1.70
2022-10-07T13:37:37.105Z,2.40
2022-10-07T13:41:44.146Z,2.88
2022-10-07T13:45:47.054Z,2.60
2022-10-07T13:49:53.285Z,1.85
2022-10-07T13:54:00.396Z,2.55
2022-10-07T13:58:04.932Z,2.42
2022-10-07T14:02:10.277Z,2.63
2022-10-07T14:06:41.719Z,2.22
2022-10-07T14:11:07.877Z,2.83
2022-10-07T14:15:15.535Z,2.22
2022-10-07T14:19:21.036Z,3.17
2022-10-07T14:23:32.812Z,2.85
2022-10-07T14:27:52.734Z,3.15
2022-10-07T14:32:28.143Z,2.55
2022-10-07T14:36:29.952Z,3.47
2022-10-07T14:40:31.567Z,3.38
2022-10-07T14:44:33.713Z,2.80
2022-10-07T14:48:35.989Z,3.30
2022-10-07T14:52:44.609Z,4.00
2022-10-07T15:00:48.417Z,3.17
2022-10-07T15:04:50.320Z,2.90
2022-10-07T15:08:52.397Z,2.60
2022-10-07T15:12:56.020Z,3.33
2022-10-07T15:16:58.072Z,3.50
2022-10-07T15:20:59.956Z,3.42
2022-10-07T15:25:05.500Z,3.10
2022-10-07T15:29:08.451Z,3.65
2022-10-07T15:33:12.448Z,3.72
2022-10-07T15:37:14.514Z,3.45
2022-10-07T15:41:32.881Z,4.25
2022-10-07T15:45:34.893Z,4.03
2022-10-07T15:49:36.694Z,4.63
2022-10-07T15:53:38.397Z,4.90
2022-10-07T15:57:40.342Z,4.93
2022-10-07T16:01:42.056Z,5.35
2022-10-07T16:05:44.801Z,6.47
2022-10-07T16:09:46.753Z,6.40
2022-10-07T16:13:48.977Z,6.22
2022-10-07T16:17:50.703Z,6.78
2022-10-07T16:21:52.711Z,6.63
2022-10-07T16:25:54.441Z,7.13
2022-10-07T16:30:19.511Z,7.65
2022-10-07T16:34:21.337Z,7.43
2022-10-07T16:38:23.203Z,7.57
2022-10-07T16:42:24.877Z,8.40
2022-10-07T16:46:27.458Z,7.20
2022-10-07T16:50:30.001Z,9.18
2022-10-07T16:54:35.263Z,9.05
2022-10-07T16:58:38.782Z,10.02
2022-10-07T17:02:40.628Z,10.90
2022-10-07T17:06:43.837Z,12.02
2022-10-07T17:10:45.743Z,13.32
2022-10-07T17:14:47.537Z,13.73
2022-10-07T17:18:49.309Z,13.95
2022-10-07T17:22:51.190Z,13.82
2022-10-07T17:26:53.519Z,12.73
2022-10-07T17:30:55.302Z,12.63
2022-10-07T17:34:57.163Z,11.63
2022-10-07T17:38:59.352Z,13.95
2022-10-07T17:43:04.397Z,13.00
2022-10-07T17:47:32.713Z,14.07
2022-10-07T17:51:35.183Z,12.85
2022-10-07T17:55:37.652Z,13.52
2022-10-07T17:59:39.811Z,12.30
2022-10-07T18:03:43.485Z,13.38
2022-10-07T18:07:45.924Z,13.73
2022-10-07T18:12:06.632Z,13.50
2022-10-07T18:16:08.506Z,14.35
2022-10-07T18:20:14.825Z,13.57
2022-10-07T18:24:17.297Z,14.75
2022-10-07T18:28:19.116Z,15.27
2022-10-07T18:32:21.333Z,14.10
2022-10-07T18:36:23.271Z,15.02
2022-10-07T18:40:25.121Z,16.20
2022-10-07T18:44:27.230Z,15.57
2022-10-07T18:48:54.183Z,15.55
2022-10-07T18:52:56.108Z,15.35
2022-10-07T18:56:57.767Z,14.57
2022-10-07T19:00:59.941Z,15.35
2022-10-07T19:05:01.599Z,13.50
2022-10-07T19:09:07.018Z,13.50
2022-10-07T19:13:32.783Z,13.40
2022-10-07T19:17:34.725Z,13.48
2022-10-07T19:21:36.416Z,11.52
2022-10-07T19:25:48.015Z,11.82
2022-10-07T19:29:50.632Z,13.30
2022-10-07T19:33:57.663Z,12.95
2022-10-07T19:38:00.081Z,12.60
2022-10-07T19:42:01.971Z,12.07
2022-10-07T19:46:04.497Z,14.27
2022-10-07T19:50:07.151Z,14.35
2022-10-07T19:54:10.623Z,14.50
2022-10-07T19:58:12.784Z,14.50
2022-10-07T20:02:14.497Z,15.73
2022-10-07T20:06:16.462Z,17.83
2022-10-07T20:10:18.910Z,19.70
2022-10-07T20:14:21.044Z,18.10
2022-10-07T20:18:22.760Z,18.33
2022-10-07T20:22:24.669Z,19.10
2022-10-07T20:26:31.487Z,17.58
2022-10-07T20:30:34.848Z,17.77
2022-10-07T20:34:38.257Z,17.38
2022-10-07T20:38:58.663Z,18.25
2022-10-07T20:43:00.927Z,18.35
2022-10-07T20:47:06.334Z,18.63
2022-10-07T20:51:08.391Z,19.73
2022-10-07T20:55:14.068Z,16.95
2022-10-07T20:59:15.711Z,18.70
2022-10-07T21:03:18.297Z,18.35
2022-10-07T21:07:20.632Z,17.85
2022-10-07T21:11:22.502Z,20.25
2022-10-07T21:15:25.263Z,17.85
2022-10-07T21:19:27.174Z,20.42
2022-10-07T21:23:29.357Z,19.00
2022-10-07T21:27:31.343Z,19.00
2022-10-07T21:31:33.105Z,19.65
2022-10-07T21:35:35.069Z,19.17
2022-10-07T21:39:38.237Z,17.35
2022-10-07T21:43:41.957Z,18.27
2022-10-07T21:47:43.645Z,19.08
2022-10-07T21:51:45.631Z,19.00
2022-10-07T21:55:47.231Z,17.98
2022-10-07T21:59:49.210Z,19.00
2022-10-07T22:03:55.790Z,18.20
2022-10-07T22:08:37.872Z,18.75
2022-10-07T22:12:40.992Z,19.98
2022-10-07T22:16:42.797Z,19.70
2022-10-07T22:20:45.268Z,16.42
2022-10-07T22:24:47.022Z,19.77
2022-10-07T22:28:49.749Z,19.75
2022-10-07T22:32:51.467Z,18.33
2022-10-07T22:36:54.229Z,19.08
2022-10-07T22:40:56.227Z,19.05
2022-10-07T22:44:57.986Z,18.02
2022-10-07T22:48:59.701Z,19.83
2022-10-07T22:53:02.055Z,19.40
2022-10-07T22:57:06.997Z,18.35
2022-10-07T23:01:14.625Z,19.95
2022-10-07T23:05:17.185Z,17.48
2022-10-07T23:09:43.498Z,16.58
2022-10-07T23:13:46.027Z,17.40
2022-10-07T23:17:48.101Z,17.63
2022-10-07T23:21:49.973Z,17.13
2022-10-07T23:25:52.112Z,18.13
2022-10-07T23:29:54.032Z,17.27
2022-10-07T23:33:57.079Z,17.05
2022-10-07T23:38:00.424Z,16.30
2022-10-07T23:42:02.990Z,18.02
2022-10-07T23:46:06.581Z,18.80
2022-10-07T23:50:09.480Z,18.67
2022-10-07T23:54:11.430Z,18.30
2022-10-07T23:58:17.577Z,19.63
